sensor_id;sensor_type;location;lat;lon;timestamp;P1;durP1;ratioP1;P2;durP2;ratioP2
8413;SDS011;4244;48.684;9.028;2024-03-08T00:00:04;23.80;;;19.90;;
8413;SDS011;4244;48.684;9.028;2024-03-08T00:02:44;23.23;;;19.57;;
8413;SDS011;4244;48.684;9.028;2024-03-08T00:05:10;24.37;;;20.67;;
8413;SDS011;4244;48.684;9.028;2024-03-08T00:07:40;26.10;;;21.30;;
8413;SDS011;4244;48.684;9.028;2024-03-08T00:10:07;23.50;;;20.60;;
8413;SDS011;4244;48.684;9.028;2024-03-08T00:12:41;24.90;;;21.20;;
8413;SDS011;4244;48.684;9.028;2024-03-08T00:15:11;25.10;;;19.77;;
8413;SDS011;4244;48.684;9.028;2024-03-08T00:17:40;26.10;;;21.20;;
8413;SDS011;4244;48.684;9.028;2024-03-08T00:20:06;28.37;;;22.90;;
8413;SDS011;4244;48.684;9.028;2024-03-08T00:22:35;23.53;;;19.87;;
8413;SDS011;4244;48.684;9.028;2024-03-08T00:25:05;24.20;;;19.93;;
8413;SDS011;4244;48.684;9.028;2024-03-08T00:27:35;23.00;;;19.50;;
8413;SDS011;4244;48.684;9.028;2024-03-08T00:30:01;25.10;;;20.47;;
8413;SDS011;4244;48.684;9.028;2024-03-08T00:32:27;23.77;;;19.60;;
8413;SDS011;4244;48.684;9.028;2024-03-08T00:34:53;23.43;;;19.30;;
8413;SDS011;4244;48.684;9.028;2024-03-08T00:37:19;23.73;;;19.13;;
8413;SDS011;4244;48.684;9.028;2024-03-08T00:39:50;20.70;;;18.50;;
8413;SDS011;4244;48.684;9.028;2024-03-08T00:42:17;25.10;;;19.80;;
8413;SDS011;4244;48.684;9.028;2024-03-08T00:44:43;28.10;;;20.87;;
8413;SDS011;4244;48.684;9.028;2024-03-08T00:47:09;23.37;;;19.10;;
8413;SDS011;4244;48.684;9.028;2024-03-08T00:49:35;19.30;;;17.17;;
8413;SDS011;4244;48.684;9.028;2024-03-08T00:52:03;23.90;;;19.77;;
8413;SDS011;4244;48.684;9.028;2024-03-08T00:54:31;24.43;;;20.00;;
8413;SDS011;4244;48.684;9.028;2024-03-08T00:56:57;24.17;;;19.50;;
8413;SDS011;4244;48.684;9.028;2024-03-08T00:59:22;23.50;;;19.43;;
8413;SDS011;4244;48.684;9.028;2024-03-08T01:01:48;21.90;;;18.63;;
8413;SDS011;4244;48.684;9.028;2024-03-08T01:04:13;24.17;;;19.53;;
8413;SDS011;4244;48.684;9.028;2024-03-08T01:06:39;22.30;;;19.87;;
8413;SDS011;4244;48.684;9.028;2024-03-08T01:09:05;26.00;;;20.57;;
8413;SDS011;4244;48.684;9.028;2024-03-08T01:11:32;25.50;;;20.47;;
8413;SDS011;4244;48.684;9.028;2024-03-08T01:13:59;22.60;;;18.33;;
8413;SDS011;4244;48.684;9.028;2024-03-08T01:16:24;22.10;;;18.57;;
8413;SDS011;4244;48.684;9.028;2024-03-08T01:18:50;21.90;;;19.20;;
8413;SDS011;4244;48.684;9.028;2024-03-08T01:21:16;23.70;;;19.20;;
8413;SDS011;4244;48.684;9.028;2024-03-08T01:23:42;23.07;;;19.40;;
8413;SDS011;4244;48.684;9.028;2024-03-08T01:26:07;22.93;;;20.40;;
8413;SDS011;4244;48.684;9.028;2024-03-08T01:28:33;25.33;;;19.37;;
8413;SDS011;4244;48.684;9.028;2024-03-08T01:30:59;27.13;;;19.40;;
8413;SDS011;4244;48.684;9.028;2024-03-08T01:33:26;27.80;;;19.83;;
8413;SDS011;4244;48.684;9.028;2024-03-08T01:35:52;23.50;;;19.13;;
8413;SDS011;4244;48.684;9.028;2024-03-08T01:38:18;23.50;;;19.50;;
8413;SDS011;4244;48.684;9.028;2024-03-08T01:40:46;24.23;;;19.33;;
8413;SDS011;4244;48.684;9.028;2024-03-08T01:43:30;23.70;;;19.00;;
8413;SDS011;4244;48.684;9.028;2024-03-08T01:45:59;24.30;;;19.80;;
8413;SDS011;4244;48.684;9.028;2024-03-08T01:48:24;23.67;;;18.07;;
8413;SDS011;4244;48.684;9.028;2024-03-08T01:50:51;22.27;;;18.37;;
8413;SDS011;4244;48.684;9.028;2024-03-08T01:53:17;21.37;;;18.80;;
8413;SDS011;4244;48.684;9.028;2024-03-08T01:55:44;24.07;;;20.40;;
8413;SDS011;4244;48.684;9.028;2024-03-08T01:58:11;25.60;;;21.37;;
8413;SDS011;4244;48.684;9.028;2024-03-08T02:00:36;24.60;;;18.57;;
8413;SDS011;4244;48.684;9.028;2024-03-08T02:03:05;26.07;;;18.93;;
8413;SDS011;4244;48.684;9.028;2024-03-08T02:05:31;23.80;;;19.27;;
8413;SDS011;4244;48.684;9.028;2024-03-08T02:07:57;24.07;;;19.63;;
8413;SDS011;4244;48.684;9.028;2024-03-08T02:10:22;23.70;;;19.90;;
8413;SDS011;4244;48.684;9.028;2024-03-08T02:12:49;25.20;;;19.77;;
8413;SDS011;4244;48.684;9.028;2024-03-08T02:15:16;24.43;;;20.87;;
8413;SDS011;4244;48.684;9.028;2024-03-08T02:17:41;24.10;;;18.23;;
8413;SDS011;4244;48.684;9.028;2024-03-08T02:20:07;25.93;;;18.73;;
8413;SDS011;4244;48.684;9.028;2024-03-08T02:22:34;24.40;;;18.27;;
8413;SDS011;4244;48.684;9.028;2024-03-08T02:25:00;26.10;;;20.57;;
8413;SDS011;4244;48.684;9.028;2024-03-08T02:27:28;23.30;;;18.60;;
8413;SDS011;4244;48.684;9.028;2024-03-08T02:29:55;23.97;;;18.33;;
8413;SDS011;4244;48.684;9.028;2024-03-08T02:32:21;26.00;;;19.30;;
8413;SDS011;4244;48.684;9.028;2024-03-08T02:34:50;25.57;;;20.17;;
8413;SDS011;4244;48.684;9.028;2024-03-08T02:37:16;23.90;;;19.00;;
8413;SDS011;4244;48.684;9.028;2024-03-08T02:39:42;27.23;;;20.00;;
8413;SDS011;4244;48.684;9.028;2024-03-08T02:42:08;24.30;;;19.63;;
8413;SDS011;4244;48.684;9.028;2024-03-08T02:44:34;23.60;;;20.10;;
8413;SDS011;4244;48.684;9.028;2024-03-08T02:46:59;25.70;;;18.83;;
8413;SDS011;4244;48.684;9.028;2024-03-08T02:49:25;22.70;;;17.60;;
8413;SDS011;4244;48.684;9.028;2024-03-08T02:51:52;24.73;;;19.90;;
8413;SDS011;4244;48.684;9.028;2024-03-08T02:54:18;22.87;;;20.00;;
8413;SDS011;4244;48.684;9.028;2024-03-08T02:56:44;21.50;;;18.03;;
8413;SDS011;4244;48.684;9.028;2024-03-08T02:59:11;22.30;;;17.90;;
8413;SDS011;4244;48.684;9.028;2024-03-08T03:01:37;21.27;;;17.60;;
8413;SDS011;4244;48.684;9.028;2024-03-08T03:04:04;24.27;;;19.10;;
8413;SDS011;4244;48.684;9.028;2024-03-08T03:06:29;26.13;;;20.17;;
8413;SDS011;4244;48.684;9.028;2024-03-08T03:08:56;19.50;;;15.93;;
8413;SDS011;4244;48.684;9.028;2024-03-08T03:11:22;23.23;;;19.17;;
8413;SDS011;4244;48.684;9.028;2024-03-08T03:13:48;22.47;;;18.60;;
8413;SDS011;4244;48.684;9.028;2024-03-08T03:16:20;23.87;;;18.87;;
8413;SDS011;4244;48.684;9.028;2024-03-08T03:18:46;21.97;;;17.70;;
8413;SDS011;4244;48.684;9.028;2024-03-08T03:21:12;22.27;;;18.23;;
8413;SDS011;4244;48.684;9.028;2024-03-08T03:23:38;20.37;;;17.40;;
8413;SDS011;4244;48.684;9.028;2024-03-08T03:26:08;24.20;;;18.10;;
8413;SDS011;4244;48.684;9.028;2024-03-08T03:28:38;20.80;;;17.13;;
8413;SDS011;4244;48.684;9.028;2024-03-08T03:31:06;22.73;;;18.23;;
8413;SDS011;4244;48.684;9.028;2024-03-08T03:33:32;21.20;;;17.40;;
8413;SDS011;4244;48.684;9.028;2024-03-08T03:35:59;21.33;;;16.53;;
8413;SDS011;4244;48.684;9.028;2024-03-08T03:38:26;22.63;;;18.40;;
8413;SDS011;4244;48.684;9.028;2024-03-08T03:40:52;22.57;;;18.27;;
8413;SDS011;4244;48.684;9.028;2024-03-08T03:43:22;23.70;;;16.83;;
8413;SDS011;4244;48.684;9.028;2024-03-08T03:45:48;26.13;;;18.33;;
8413;SDS011;4244;48.684;9.028;2024-03-08T03:48:13;21.70;;;17.30;;
8413;SDS011;4244;48.684;9.028;2024-03-08T03:50:39;23.63;;;18.87;;
8413;SDS011;4244;48.684;9.028;2024-03-08T03:53:05;24.07;;;17.43;;
8413;SDS011;4244;48.684;9.028;2024-03-08T03:55:33;21.13;;;17.43;;
8413;SDS011;4244;48.684;9.028;2024-03-08T04:01:21;20.40;;;16.30;;
8413;SDS011;4244;48.684;9.028;2024-03-08T04:03:46;22.20;;;17.80;;
8413;SDS011;4244;48.684;9.028;2024-03-08T04:06:12;21.40;;;17.83;;
8413;SDS011;4244;48.684;9.028;2024-03-08T04:08:39;21.90;;;17.90;;
8413;SDS011;4244;48.684;9.028;2024-03-08T04:11:05;19.87;;;16.73;;
8413;SDS011;4244;48.684;9.028;2024-03-08T04:13:30;19.50;;;16.70;;
8413;SDS011;4244;48.684;9.028;2024-03-08T04:15:56;22.80;;;18.10;;
8413;SDS011;4244;48.684;9.028;2024-03-08T04:18:22;23.33;;;16.40;;
8413;SDS011;4244;48.684;9.028;2024-03-08T04:20:47;21.70;;;17.47;;
8413;SDS011;4244;48.684;9.028;2024-03-08T04:23:13;24.17;;;18.27;;
8413;SDS011;4244;48.684;9.028;2024-03-08T04:25:43;20.10;;;16.43;;
8413;SDS011;4244;48.684;9.028;2024-03-08T04:28:09;19.80;;;17.30;;
8413;SDS011;4244;48.684;9.028;2024-03-08T04:30:37;19.90;;;16.40;;
8413;SDS011;4244;48.684;9.028;2024-03-08T04:33:05;21.80;;;17.17;;
8413;SDS011;4244;48.684;9.028;2024-03-08T04:35:34;21.00;;;16.53;;
8413;SDS011;4244;48.684;9.028;2024-03-08T04:38:00;21.57;;;17.20;;
8413;SDS011;4244;48.684;9.028;2024-03-08T04:40:26;24.03;;;17.17;;
8413;SDS011;4244;48.684;9.028;2024-03-08T04:42:51;21.93;;;17.03;;
8413;SDS011;4244;48.684;9.028;2024-03-08T04:45:17;19.80;;;17.43;;
8413;SDS011;4244;48.684;9.028;2024-03-08T04:47:43;23.43;;;18.20;;
8413;SDS011;4244;48.684;9.028;2024-03-08T04:50:08;22.67;;;17.27;;
8413;SDS011;4244;48.684;9.028;2024-03-08T04:52:34;23.20;;;17.53;;
8413;SDS011;4244;48.684;9.028;2024-03-08T04:55:00;21.87;;;18.13;;
8413;SDS011;4244;48.684;9.028;2024-03-08T04:57:30;21.33;;;17.37;;
8413;SDS011;4244;48.684;9.028;2024-03-08T04:59:56;21.70;;;16.97;;
8413;SDS011;4244;48.684;9.028;2024-03-08T05:02:24;20.57;;;16.40;;
8413;SDS011;4244;48.684;9.028;2024-03-08T05:04:49;21.37;;;18.80;;
8413;SDS011;4244;48.684;9.028;2024-03-08T05:07:15;24.70;;;18.63;;
8413;SDS011;4244;48.684;9.028;2024-03-08T05:09:41;23.33;;;16.80;;
8413;SDS011;4244;48.684;9.028;2024-03-08T05:12:07;21.77;;;18.00;;
8413;SDS011;4244;48.684;9.028;2024-03-08T05:14:33;22.93;;;19.17;;
8413;SDS011;4244;48.684;9.028;2024-03-08T05:16:59;23.27;;;19.00;;
8413;SDS011;4244;48.684;9.028;2024-03-08T05:19:26;21.90;;;17.50;;
8413;SDS011;4244;48.684;9.028;2024-03-08T05:21:51;21.30;;;17.77;;
8413;SDS011;4244;48.684;9.028;2024-03-08T05:24:17;23.43;;;18.10;;
8413;SDS011;4244;48.684;9.028;2024-03-08T05:26:43;22.30;;;17.30;;
8413;SDS011;4244;48.684;9.028;2024-03-08T05:29:09;21.53;;;17.33;;
8413;SDS011;4244;48.684;9.028;2024-03-08T05:31:42;24.23;;;19.07;;
8413;SDS011;4244;48.684;9.028;2024-03-08T05:34:15;21.50;;;16.40;;
8413;SDS011;4244;48.684;9.028;2024-03-08T05:36:44;23.40;;;16.83;;
8413;SDS011;4244;48.684;9.028;2024-03-08T05:39:11;21.97;;;17.00;;
8413;SDS011;4244;48.684;9.028;2024-03-08T05:41:38;19.73;;;16.17;;
8413;SDS011;4244;48.684;9.028;2024-03-08T05:44:05;20.50;;;17.20;;
8413;SDS011;4244;48.684;9.028;2024-03-08T05:46:31;22.17;;;17.60;;
8413;SDS011;4244;48.684;9.028;2024-03-08T05:48:57;22.87;;;19.53;;
8413;SDS011;4244;48.684;9.028;2024-03-08T05:51:24;26.93;;;18.47;;
8413;SDS011;4244;48.684;9.028;2024-03-08T05:53:52;22.00;;;18.30;;
8413;SDS011;4244;48.684;9.028;2024-03-08T05:56:18;27.90;;;19.90;;
8413;SDS011;4244;48.684;9.028;2024-03-08T05:58:44;23.87;;;19.20;;
8413;SDS011;4244;48.684;9.028;2024-03-08T06:01:10;22.20;;;17.13;;
8413;SDS011;4244;48.684;9.028;2024-03-08T06:03:37;25.30;;;19.60;;
8413;SDS011;4244;48.684;9.028;2024-03-08T06:06:12;23.77;;;18.33;;
8413;SDS011;4244;48.684;9.028;2024-03-08T06:08:37;23.40;;;18.63;;
8413;SDS011;4244;48.684;9.028;2024-03-08T06:11:03;22.13;;;17.83;;
8413;SDS011;4244;48.684;9.028;2024-03-08T06:13:30;23.70;;;18.43;;
8413;SDS011;4244;48.684;9.028;2024-03-08T06:16:00;27.07;;;20.83;;
8413;SDS011;4244;48.684;9.028;2024-03-08T06:18:29;22.10;;;18.27;;
8413;SDS011;4244;48.684;9.028;2024-03-08T06:20:55;24.53;;;19.03;;
8413;SDS011;4244;48.684;9.028;2024-03-08T06:23:21;21.03;;;18.00;;
8413;SDS011;4244;48.684;9.028;2024-03-08T06:25:47;24.53;;;18.87;;
8413;SDS011;4244;48.684;9.028;2024-03-08T06:28:13;22.70;;;18.60;;
8413;SDS011;4244;48.684;9.028;2024-03-08T06:30:39;22.33;;;18.77;;
8413;SDS011;4244;48.684;9.028;2024-03-08T06:33:05;25.70;;;20.37;;
8413;SDS011;4244;48.684;9.028;2024-03-08T06:35:32;22.07;;;18.40;;
8413;SDS011;4244;48.684;9.028;2024-03-08T06:37:58;21.50;;;18.00;;
8413;SDS011;4244;48.684;9.028;2024-03-08T06:46:43;24.50;;;18.73;;
8413;SDS011;4244;48.684;9.028;2024-03-08T06:49:08;24.90;;;19.60;;
8413;SDS011;4244;48.684;9.028;2024-03-08T06:51:35;21.57;;;18.20;;
8413;SDS011;4244;48.684;9.028;2024-03-08T06:54:01;25.00;;;19.83;;
8413;SDS011;4244;48.684;9.028;2024-03-08T06:56:33;23.83;;;18.63;;
8413;SDS011;4244;48.684;9.028;2024-03-08T06:58:59;24.33;;;19.97;;
8413;SDS011;4244;48.684;9.028;2024-03-08T07:01:25;23.07;;;18.30;;
8413;SDS011;4244;48.684;9.028;2024-03-08T07:03:51;21.10;;;18.00;;
8413;SDS011;4244;48.684;9.028;2024-03-08T07:06:17;24.90;;;19.93;;
8413;SDS011;4244;48.684;9.028;2024-03-08T07:08:44;21.30;;;18.17;;
8413;SDS011;4244;48.684;9.028;2024-03-08T07:11:11;21.93;;;19.17;;
8413;SDS011;4244;48.684;9.028;2024-03-08T07:13:37;23.63;;;18.83;;
8413;SDS011;4244;48.684;9.028;2024-03-08T07:16:04;22.50;;;18.43;;
8413;SDS011;4244;48.684;9.028;2024-03-08T07:18:30;24.20;;;19.20;;
8413;SDS011;4244;48.684;9.028;2024-03-08T07:20:57;23.73;;;20.20;;
8413;SDS011;4244;48.684;9.028;2024-03-08T07:23:22;24.20;;;19.67;;
8413;SDS011;4244;48.684;9.028;2024-03-08T07:26:06;22.63;;;18.90;;
8413;SDS011;4244;48.684;9.028;2024-03-08T07:28:32;22.53;;;18.90;;
8413;SDS011;4244;48.684;9.028;2024-03-08T07:30:58;25.80;;;19.17;;
8413;SDS011;4244;48.684;9.028;2024-03-08T07:33:38;21.67;;;19.13;;
8413;SDS011;4244;48.684;9.028;2024-03-08T07:36:06;23.67;;;18.73;;
8413;SDS011;4244;48.684;9.028;2024-03-08T07:38:33;21.43;;;18.00;;
8413;SDS011;4244;48.684;9.028;2024-03-08T07:40:59;21.07;;;18.27;;
8413;SDS011;4244;48.684;9.028;2024-03-08T07:43:25;21.47;;;17.33;;
8413;SDS011;4244;48.684;9.028;2024-03-08T07:45:51;12.27;;;10.00;;
8413;SDS011;4244;48.684;9.028;2024-03-08T07:48:18;16.10;;;8.70;;
8413;SDS011;4244;48.684;9.028;2024-03-08T07:50:43;15.20;;;10.97;;
8413;SDS011;4244;48.684;9.028;2024-03-08T07:53:09;17.73;;;12.37;;
8413;SDS011;4244;48.684;9.028;2024-03-08T07:55:35;16.67;;;10.63;;
8413;SDS011;4244;48.684;9.028;2024-03-08T07:58:01;14.47;;;11.10;;
8413;SDS011;4244;48.684;9.028;2024-03-08T08:00:28;13.80;;;10.03;;
8413;SDS011;4244;48.684;9.028;2024-03-08T08:02:55;12.37;;;9.97;;
8413;SDS011;4244;48.684;9.028;2024-03-08T08:05:21;13.63;;;12.20;;
8413;SDS011;4244;48.684;9.028;2024-03-08T08:07:46;18.13;;;16.20;;
8413;SDS011;4244;48.684;9.028;2024-03-08T08:10:12;16.80;;;15.00;;
8413;SDS011;4244;48.684;9.028;2024-03-08T08:12:47;17.87;;;15.97;;
8413;SDS011;4244;48.684;9.028;2024-03-08T08:15:16;20.70;;;17.07;;
8413;SDS011;4244;48.684;9.028;2024-03-08T08:17:43;18.63;;;16.50;;
8413;SDS011;4244;48.684;9.028;2024-03-08T08:20:12;17.17;;;15.37;;
8413;SDS011;4244;48.684;9.028;2024-03-08T08:22:38;19.17;;;17.17;;
8413;SDS011;4244;48.684;9.028;2024-03-08T08:25:08;19.70;;;17.60;;
8413;SDS011;4244;48.684;9.028;2024-03-08T08:27:34;20.03;;;16.90;;
8413;SDS011;4244;48.684;9.028;2024-03-08T08:30:01;22.40;;;18.77;;
8413;SDS011;4244;48.684;9.028;2024-03-08T08:32:33;20.30;;;18.17;;
8413;SDS011;4244;48.684;9.028;2024-03-08T08:35:05;20.77;;;16.73;;
8413;SDS011;4244;48.684;9.028;2024-03-08T08:37:31;21.53;;;19.23;;
8413;SDS011;4244;48.684;9.028;2024-03-08T08:39:57;20.27;;;17.77;;
8413;SDS011;4244;48.684;9.028;2024-03-08T08:42:23;21.03;;;18.73;;
8413;SDS011;4244;48.684;9.028;2024-03-08T08:44:49;20.20;;;18.10;;
8413;SDS011;4244;48.684;9.028;2024-03-08T08:47:16;22.37;;;18.73;;
8413;SDS011;4244;48.684;9.028;2024-03-08T08:49:45;18.47;;;16.50;;
8413;SDS011;4244;48.684;9.028;2024-03-08T08:52:14;19.70;;;17.30;;
8413;SDS011;4244;48.684;9.028;2024-03-08T08:54:41;18.80;;;16.80;;
8413;SDS011;4244;48.684;9.028;2024-03-08T08:57:07;20.17;;;17.97;;
8413;SDS011;4244;48.684;9.028;2024-03-08T08:59:33;20.63;;;16.50;;
8413;SDS011;4244;48.684;9.028;2024-03-08T09:02:04;17.40;;;15.60;;
8413;SDS011;4244;48.684;9.028;2024-03-08T09:04:31;19.50;;;16.17;;
8413;SDS011;4244;48.684;9.028;2024-03-08T09:06:56;17.73;;;15.83;;
8413;SDS011;4244;48.684;9.028;2024-03-08T09:09:22;23.60;;;16.93;;
8413;SDS011;4244;48.684;9.028;2024-03-08T09:11:48;18.77;;;16.17;;
8413;SDS011;4244;48.684;9.028;2024-03-08T09:14:14;18.23;;;16.13;;
8413;SDS011;4244;48.684;9.028;2024-03-08T09:16:40;19.63;;;16.63;;
8413;SDS011;4244;48.684;9.028;2024-03-08T09:19:06;17.17;;;15.30;;
8413;SDS011;4244;48.684;9.028;2024-03-08T09:21:32;19.17;;;15.50;;
8413;SDS011;4244;48.684;9.028;2024-03-08T09:23:59;17.63;;;15.57;;
8413;SDS011;4244;48.684;9.028;2024-03-08T09:26:26;18.87;;;15.40;;
8413;SDS011;4244;48.684;9.028;2024-03-08T09:28:52;17.80;;;16.00;;
8413;SDS011;4244;48.684;9.028;2024-03-08T09:31:19;19.53;;;16.27;;
8413;SDS011;4244;48.684;9.028;2024-03-08T09:33:45;18.40;;;15.53;;
8413;SDS011;4244;48.684;9.028;2024-03-08T09:36:11;16.33;;;14.43;;
8413;SDS011;4244;48.684;9.028;2024-03-08T09:38:40;17.13;;;15.43;;
8413;SDS011;4244;48.684;9.028;2024-03-08T09:41:06;17.20;;;15.40;;
8413;SDS011;4244;48.684;9.028;2024-03-08T09:43:34;17.77;;;15.77;;
8413;SDS011;4244;48.684;9.028;2024-03-08T09:46:00;17.77;;;15.60;;
8413;SDS011;4244;48.684;9.028;2024-03-08T09:48:26;17.33;;;14.80;;
8413;SDS011;4244;48.684;9.028;2024-03-08T09:50:52;19.13;;;15.07;;
8413;SDS011;4244;48.684;9.028;2024-03-08T09:53:19;16.73;;;14.03;;
8413;SDS011;4244;48.684;9.028;2024-03-08T09:55:47;16.77;;;14.97;;
8413;SDS011;4244;48.684;9.028;2024-03-08T09:58:15;18.40;;;16.50;;
8413;SDS011;4244;48.684;9.028;2024-03-08T10:00:42;17.90;;;15.50;;
8413;SDS011;4244;48.684;9.028;2024-03-08T10:03:08;17.57;;;14.70;;
8413;SDS011;4244;48.684;9.028;2024-03-08T10:05:34;16.93;;;15.20;;
8413;SDS011;4244;48.684;9.028;2024-03-08T10:07:59;16.80;;;14.60;;
8413;SDS011;4244;48.684;9.028;2024-03-08T10:10:25;17.00;;;15.20;;
8413;SDS011;4244;48.684;9.028;2024-03-08T10:12:51;14.23;;;12.73;;
8413;SDS011;4244;48.684;9.028;2024-03-08T10:15:17;17.70;;;14.57;;
8413;SDS011;4244;48.684;9.028;2024-03-08T10:17:43;15.63;;;13.90;;
8413;SDS011;4244;48.684;9.028;2024-03-08T10:20:15;19.97;;;15.23;;
8413;SDS011;4244;48.684;9.028;2024-03-08T10:22:41;17.40;;;15.17;;
8413;SDS011;4244;48.684;9.028;2024-03-08T10:25:09;16.20;;;14.50;;
8413;SDS011;4244;48.684;9.028;2024-03-08T10:27:36;16.63;;;14.83;;
8413;SDS011;4244;48.684;9.028;2024-03-08T10:30:02;15.47;;;13.87;;
8413;SDS011;4244;48.684;9.028;2024-03-08T10:32:29;15.73;;;13.60;;
8413;SDS011;4244;48.684;9.028;2024-03-08T10:34:55;16.93;;;15.03;;
8413;SDS011;4244;48.684;9.028;2024-03-08T10:37:21;15.03;;;13.43;;
8413;SDS011;4244;48.684;9.028;2024-03-08T10:40:03;16.37;;;14.67;;
8413;SDS011;4244;48.684;9.028;2024-03-08T10:42:35;17.60;;;15.37;;
8413;SDS011;4244;48.684;9.028;2024-03-08T10:50:53;13.73;;;12.33;;
8413;SDS011;4244;48.684;9.028;2024-03-08T10:53:18;16.30;;;13.97;;
8413;SDS011;4244;48.684;9.028;2024-03-08T10:55:47;15.43;;;13.80;;
8413;SDS011;4244;48.684;9.028;2024-03-08T10:58:18;15.60;;;14.00;;
8413;SDS011;4244;48.684;9.028;2024-03-08T11:00:45;16.77;;;15.03;;
8413;SDS011;4244;48.684;9.028;2024-03-08T11:08:40;15.50;;;13.90;;
8413;SDS011;4244;48.684;9.028;2024-03-08T11:11:22;15.47;;;13.77;;
8413;SDS011;4244;48.684;9.028;2024-03-08T11:13:55;17.50;;;13.43;;
8413;SDS011;4244;48.684;9.028;2024-03-08T11:18:54;16.20;;;14.27;;
8413;SDS011;4244;48.684;9.028;2024-03-08T11:21:29;14.07;;;12.67;;
8413;SDS011;4244;48.684;9.028;2024-03-08T11:24:13;14.73;;;13.30;;
8413;SDS011;4244;48.684;9.028;2024-03-08T11:26:39;16.13;;;14.07;;
8413;SDS011;4244;48.684;9.028;2024-03-08T11:31:53;14.33;;;12.93;;
8413;SDS011;4244;48.684;9.028;2024-03-08T11:34:46;13.70;;;12.30;;
8413;SDS011;4244;48.684;9.028;2024-03-08T11:37:16;14.13;;;12.73;;
8413;SDS011;4244;48.684;9.028;2024-03-08T11:39:53;14.73;;;13.20;;
8413;SDS011;4244;48.684;9.028;2024-03-08T11:42:24;14.43;;;12.93;;
8413;SDS011;4244;48.684;9.028;2024-03-08T11:44:51;14.33;;;12.97;;
8413;SDS011;4244;48.684;9.028;2024-03-08T11:47:20;15.10;;;13.50;;
8413;SDS011;4244;48.684;9.028;2024-03-08T11:49:46;13.10;;;11.80;;
8413;SDS011;4244;48.684;9.028;2024-03-08T11:52:15;13.70;;;12.37;;
8413;SDS011;4244;48.684;9.028;2024-03-08T11:54:43;15.63;;;14.07;;
8413;SDS011;4244;48.684;9.028;2024-03-08T11:57:25;15.03;;;13.53;;
8413;SDS011;4244;48.684;9.028;2024-03-08T11:59:54;13.43;;;12.13;;
8413;SDS011;4244;48.684;9.028;2024-03-08T12:02:35;12.37;;;11.17;;
8413;SDS011;4244;48.684;9.028;2024-03-08T12:05:06;12.57;;;10.97;;
8413;SDS011;4244;48.684;9.028;2024-03-08T12:07:55;11.93;;;10.77;;
8413;SDS011;4244;48.684;9.028;2024-03-08T12:10:22;12.13;;;10.93;;
8413;SDS011;4244;48.684;9.028;2024-03-08T12:12:51;12.27;;;11.03;;
8413;SDS011;4244;48.684;9.028;2024-03-08T12:15:18;12.30;;;11.13;;
8413;SDS011;4244;48.684;9.028;2024-03-08T12:17:45;12.73;;;11.47;;
8413;SDS011;4244;48.684;9.028;2024-03-08T12:20:18;11.93;;;10.73;;
8413;SDS011;4244;48.684;9.028;2024-03-08T12:22:46;12.10;;;10.90;;
8413;SDS011;4244;48.684;9.028;2024-03-08T12:25:13;11.30;;;10.10;;
8413;SDS011;4244;48.684;9.028;2024-03-08T12:27:40;11.80;;;10.40;;
8413;SDS011;4244;48.684;9.028;2024-03-08T12:32:55;13.30;;;12.10;;
8413;SDS011;4244;48.684;9.028;2024-03-08T12:35:31;12.03;;;11.00;;
8413;SDS011;4244;48.684;9.028;2024-03-08T12:37:58;11.30;;;10.33;;
8413;SDS011;4244;48.684;9.028;2024-03-08T12:40:28;11.73;;;10.77;;
8413;SDS011;4244;48.684;9.028;2024-03-08T12:42:58;12.10;;;11.00;;
8413;SDS011;4244;48.684;9.028;2024-03-08T12:45:24;11.53;;;10.60;;
8413;SDS011;4244;48.684;9.028;2024-03-08T12:47:53;11.40;;;10.50;;
8413;SDS011;4244;48.684;9.028;2024-03-08T12:50:19;11.67;;;10.70;;
8413;SDS011;4244;48.684;9.028;2024-03-08T12:52:48;10.90;;;10.00;;
8413;SDS011;4244;48.684;9.028;2024-03-08T12:55:14;11.73;;;10.83;;
8413;SDS011;4244;48.684;9.028;2024-03-08T12:57:43;11.60;;;10.60;;
8413;SDS011;4244;48.684;9.028;2024-03-08T13:00:09;11.20;;;10.40;;
8413;SDS011;4244;48.684;9.028;2024-03-08T13:02:48;12.30;;;10.20;;
8413;SDS011;4244;48.684;9.028;2024-03-08T13:05:16;10.60;;;9.80;;
8413;SDS011;4244;48.684;9.028;2024-03-08T13:07:42;7.53;;;6.90;;
8413;SDS011;4244;48.684;9.028;2024-03-08T13:10:11;8.73;;;8.03;;
8413;SDS011;4244;48.684;9.028;2024-03-08T13:12:43;9.30;;;8.50;;
8413;SDS011;4244;48.684;9.028;2024-03-08T13:15:10;7.80;;;7.20;;
8413;SDS011;4244;48.684;9.028;2024-03-08T13:17:40;9.33;;;8.30;;
8413;SDS011;4244;48.684;9.028;2024-03-08T13:20:08;8.87;;;8.17;;
8413;SDS011;4244;48.684;9.028;2024-03-08T13:22:41;9.60;;;8.67;;
8413;SDS011;4244;48.684;9.028;2024-03-08T13:25:07;9.63;;;8.73;;
8413;SDS011;4244;48.684;9.028;2024-03-08T13:27:38;9.53;;;7.60;;
8413;SDS011;4244;48.684;9.028;2024-03-08T13:30:06;9.37;;;8.57;;
8413;SDS011;4244;48.684;9.028;2024-03-08T13:32:33;8.70;;;7.90;;
8413;SDS011;4244;48.684;9.028;2024-03-08T13:34:59;8.40;;;7.77;;
8413;SDS011;4244;48.684;9.028;2024-03-08T13:37:24;10.53;;;9.70;;
8413;SDS011;4244;48.684;9.028;2024-03-08T13:39:51;10.23;;;9.43;;
8413;SDS011;4244;48.684;9.028;2024-03-08T13:42:18;10.10;;;9.27;;
8413;SDS011;4244;48.684;9.028;2024-03-08T13:44:45;11.00;;;10.13;;
8413;SDS011;4244;48.684;9.028;2024-03-08T13:47:12;12.23;;;11.13;;
8413;SDS011;4244;48.684;9.028;2024-03-08T13:49:39;10.43;;;9.60;;
8413;SDS011;4244;48.684;9.028;2024-03-08T13:52:05;10.97;;;10.03;;
8413;SDS011;4244;48.684;9.028;2024-03-08T13:54:34;9.73;;;8.93;;
8413;SDS011;4244;48.684;9.028;2024-03-08T13:57:04;9.67;;;8.87;;
8413;SDS011;4244;48.684;9.028;2024-03-08T13:59:33;10.40;;;9.60;;
8413;SDS011;4244;48.684;9.028;2024-03-08T14:02:00;10.60;;;9.70;;
8413;SDS011;4244;48.684;9.028;2024-03-08T14:04:29;10.30;;;9.40;;
8413;SDS011;4244;48.684;9.028;2024-03-08T14:06:57;10.40;;;9.53;;
8413;SDS011;4244;48.684;9.028;2024-03-08T14:09:28;11.50;;;10.50;;
8413;SDS011;4244;48.684;9.028;2024-03-08T14:11:55;11.23;;;10.33;;
8413;SDS011;4244;48.684;9.028;2024-03-08T14:14:22;10.10;;;9.20;;
8413;SDS011;4244;48.684;9.028;2024-03-08T14:16:53;10.60;;;9.77;;
8413;SDS011;4244;48.684;9.028;2024-03-08T14:19:27;10.83;;;10.03;;
8413;SDS011;4244;48.684;9.028;2024-03-08T14:21:55;11.63;;;10.67;;
8413;SDS011;4244;48.684;9.028;2024-03-08T14:24:25;11.53;;;10.60;;
8413;SDS011;4244;48.684;9.028;2024-03-08T14:26:55;10.27;;;9.37;;
8413;SDS011;4244;48.684;9.028;2024-03-08T14:29:23;9.90;;;9.20;;
8413;SDS011;4244;48.684;9.028;2024-03-08T14:31:54;12.47;;;11.30;;
8413;SDS011;4244;48.684;9.028;2024-03-08T14:34:22;11.43;;;10.43;;
8413;SDS011;4244;48.684;9.028;2024-03-08T14:36:51;12.90;;;11.80;;
8413;SDS011;4244;48.684;9.028;2024-03-08T14:39:17;11.40;;;10.50;;
8413;SDS011;4244;48.684;9.028;2024-03-08T14:41:46;11.93;;;10.87;;
8413;SDS011;4244;48.684;9.028;2024-03-08T14:44:19;10.37;;;9.47;;
8413;SDS011;4244;48.684;9.028;2024-03-08T14:46:45;11.80;;;10.80;;
8413;SDS011;4244;48.684;9.028;2024-03-08T14:49:11;12.40;;;11.40;;
8413;SDS011;4244;48.684;9.028;2024-03-08T14:51:37;12.97;;;11.87;;
8413;SDS011;4244;48.684;9.028;2024-03-08T14:54:03;12.17;;;11.17;;
8413;SDS011;4244;48.684;9.028;2024-03-08T14:56:31;11.43;;;10.47;;
8413;SDS011;4244;48.684;9.028;2024-03-08T14:58:57;12.40;;;11.30;;
8413;SDS011;4244;48.684;9.028;2024-03-08T15:01:24;11.90;;;10.93;;
8413;SDS011;4244;48.684;9.028;2024-03-08T15:03:55;11.83;;;10.73;;
8413;SDS011;4244;48.684;9.028;2024-03-08T15:06:22;10.97;;;10.07;;
8413;SDS011;4244;48.684;9.028;2024-03-08T15:08:49;12.40;;;11.40;;
8413;SDS011;4244;48.684;9.028;2024-03-08T15:11:16;11.47;;;10.37;;
8413;SDS011;4244;48.684;9.028;2024-03-08T15:13:50;11.60;;;10.70;;
8413;SDS011;4244;48.684;9.028;2024-03-08T15:16:18;12.90;;;11.80;;
8413;SDS011;4244;48.684;9.028;2024-03-08T15:18:45;12.80;;;11.70;;
8413;SDS011;4244;48.684;9.028;2024-03-08T15:21:16;11.90;;;10.90;;